Time;durP1;ratioP1;P1;durP2;ratioP2;P2;SDS_P1;SDS_P2;PMS_P1;PMS_P2;Temp;Humidity;BMP_temperature;BMP_pressure;BME280_temperature;BME280_humidity;BME280_pressure;Samples;Min_cycle;Max_cycle;Signal;HPM_P1;HPM_P2
2022/05/18 00:00:27;;;;;;;12.03;7.17;;;18.90;99.90;;;;;;5025288;28;20292;-54
2022/05/18 00:02:56;;;;;;;8.40;6.77;;;19.00;99.90;;;;;;5018798;28;20236;-53
2022/05/18 00:05:23;;;;;;;9.33;7.20;;;18.90;99.90;;;;;;5021945;28;20300;-54
2022/05/18 00:07:50;;;;;;;10.37;7.37;;;18.90;99.90;;;;;;5024511;28;20227;-53
2022/05/18 00:10:17;;;;;;;10.83;8.00;;;18.90;99.90;;;;;;5021282;28;21893;-53
2022/05/18 00:12:46;;;;;;;9.43;7.67;;;18.90;99.90;;;;;;5024974;28;20603;-54
2022/05/18 00:15:14;;;;;;;8.37;6.80;;;18.90;99.90;;;;;;5021424;28;20242;-53
2022/05/18 00:17:41;;;;;;;10.30;7.33;;;18.80;99.90;;;;;;5023274;28;20276;-53
2022/05/18 00:20:10;;;;;;;10.83;7.43;;;18.80;99.90;;;;;;5017456;28;20357;-54
2022/05/18 00:22:48;;;;;;;10.47;7.43;;;18.70;99.90;;;;;;5020127;28;20247;-56
2022/05/18 00:25:17;;;;;;;10.47;7.60;;;18.70;99.90;;;;;;5012344;28;20315;-53
2022/05/18 00:27:45;;;;;;;10.00;7.30;;;18.70;99.90;;;;;;5021835;28;20198;-54
2022/05/18 00:30:13;;;;;;;8.83;7.10;;;18.60;99.90;;;;;;5024711;28;20295;-54
2022/05/18 00:32:41;;;;;;;8.73;7.20;;;18.50;99.90;;;;;;5025407;28;20229;-54
2022/05/18 00:35:08;;;;;;;9.13;7.57;;;18.50;99.90;;;;;;5019207;28;20724;-54
2022/05/18 00:37:35;;;;;;;8.43;7.50;;;18.40;99.90;;;;;;5017191;28;20508;-59
2022/05/18 00:40:02;;;;;;;8.83;7.10;;;18.40;99.90;;;;;;5017678;28;20246;-53
2022/05/18 00:42:29;;;;;;;10.63;7.23;;;18.50;99.90;;;;;;5021929;28;20225;-53
2022/05/18 00:44:56;;;;;;;9.23;6.83;;;18.40;99.90;;;;;;5021307;28;20216;-53
2022/05/18 00:47:23;;;;;;;8.67;6.93;;;18.30;99.90;;;;;;5022463;28;20382;-54
2022/05/18 00:50:15;;;;;;;8.57;7.67;;;18.30;99.90;;;;;;5019447;28;20200;-53
2022/05/18 00:52:55;;;;;;;9.20;6.90;;;18.30;99.90;;;;;;5016379;28;20310;-53
2022/05/18 00:55:25;;;;;;;11.00;7.43;;;18.30;99.90;;;;;;5019302;28;20211;-54
2022/05/18 00:58:16;;;;;;;10.13;7.83;;;18.30;99.90;;;;;;5022959;28;20260;-54
2022/05/18 01:00:44;;;;;;;10.67;7.60;;;18.20;99.90;;;;;;5023877;28;20246;-54
2022/05/18 01:03:27;;;;;;;9.00;7.10;;;18.30;99.90;;;;;;5024003;28;20210;-54
2022/05/18 01:06:17;;;;;;;12.60;8.13;;;18.30;99.90;;;;;;5018238;28;20667;-53
2022/05/18 01:09:07;;;;;;;13.73;9.00;;;18.30;99.90;;;;;;5018409;28;20241;-53
2022/05/18 01:11:36;;;;;;;12.03;9.27;;;18.30;99.90;;;;;;5021863;28;20760;-53
2022/05/18 01:14:26;;;;;;;11.37;9.30;;;18.20;99.90;;;;;;5024428;28;20287;-53
2022/05/18 01:16:53;;;;;;;13.43;8.40;;;18.20;99.90;;;;;;5019727;28;20887;-55
2022/05/18 01:19:44;;;;;;;12.57;9.03;;;18.20;99.90;;;;;;5018633;28;20215;-54
2022/05/18 01:22:37;;;;;;;11.30;9.77;;;18.20;99.90;;;;;;5023709;28;20291;-54
2022/05/18 01:25:16;;;;;;;11.27;8.97;;;18.20;99.90;;;;;;5022745;28;20690;-53
2022/05/18 01:27:43;;;;;;;14.70;8.60;;;18.10;99.90;;;;;;5018503;28;20295;-53
2022/05/18 01:30:12;;;;;;;11.13;8.93;;;18.10;99.90;;;;;;5019555;28;20284;-54
2022/05/18 01:32:46;;;;;;;13.37;8.80;;;18.10;99.90;;;;;;5024534;28;20293;-54
2022/05/18 01:35:16;;;;;;;14.63;9.30;;;18.10;99.90;;;;;;5018164;28;20754;-54
2022/05/18 01:37:43;;;;;;;10.00;8.87;;;18.00;99.90;;;;;;5019334;28;20251;-54
2022/05/18 01:40:20;;;;;;;10.10;9.10;;;18.10;99.90;;;;;;5017744;28;20292;-53
2022/05/18 01:42:52;;;;;;;10.10;8.57;;;18.10;99.90;;;;;;5014320;28;20204;-53
2022/05/18 01:45:19;;;;;;;13.30;9.20;;;18.10;99.90;;;;;;5024334;28;20405;-54
2022/05/18 01:47:48;;;;;;;11.10;8.97;;;18.10;99.90;;;;;;5021775;28;20232;-53
2022/05/18 01:50:21;;;;;;;12.43;9.17;;;18.00;99.90;;;;;;5019830;28;20247;-55
2022/05/18 01:52:47;;;;;;;11.37;8.73;;;18.00;99.90;;;;;;5019767;28;20197;-54
2022/05/18 01:55:17;;;;;;;14.10;9.03;;;18.00;99.90;;;;;;5023195;28;20669;-53
2022/05/18 01:57:44;;;;;;;10.40;8.80;;;18.10;99.90;;;;;;5017123;28;20200;-54
2022/05/18 02:00:12;;;;;;;11.33;8.67;;;18.00;99.90;;;;;;5018725;28;20323;-53
2022/05/18 02:02:40;;;;;;;10.73;9.03;;;17.90;99.90;;;;;;5022139;28;20660;-54
2022/05/18 02:05:09;;;;;;;10.67;9.33;;;17.90;99.90;;;;;;5015848;28;20810;-54
2022/05/18 02:07:36;;;;;;;13.53;9.93;;;17.90;99.90;;;;;;5019457;28;20232;-53
2022/05/18 02:10:04;;;;;;;12.83;9.63;;;17.90;99.90;;;;;;5021039;28;20287;-54
2022/05/18 02:12:31;;;;;;;11.27;9.07;;;17.90;99.90;;;;;;5019557;28;20204;-54
2022/05/18 02:14:57;;;;;;;12.53;9.90;;;18.00;99.90;;;;;;5021055;28;20236;-53
2022/05/18 02:17:25;;;;;;;10.97;8.93;;;18.00;99.90;;;;;;5019800;28;20656;-54
2022/05/18 02:19:52;;;;;;;11.73;9.30;;;18.10;99.90;;;;;;5018964;28;20203;-54
2022/05/18 02:22:19;;;;;;;10.77;9.67;;;18.00;99.90;;;;;;5022088;28;20259;-53
2022/05/18 02:24:46;;;;;;;11.53;9.60;;;18.00;99.90;;;;;;5021493;28;20193;-54
2022/05/18 02:27:13;;;;;;;11.10;9.70;;;18.00;99.90;;;;;;5018702;28;20236;-53
2022/05/18 02:29:39;;;;;;;10.60;9.50;;;18.00;99.90;;;;;;5019012;28;20243;-54
2022/05/18 02:32:07;;;;;;;12.30;9.83;;;17.90;99.90;;;;;;5020735;28;20237;-54
2022/05/18 02:34:33;;;;;;;11.43;9.63;;;17.90;99.90;;;;;;5022812;28;20714;-53
2022/05/18 02:37:01;;;;;;;13.47;11.13;;;17.90;99.90;;;;;;5019004;28;20284;-56
2022/05/18 02:39:27;;;;;;;19.27;12.90;;;17.90;99.90;;;;;;5020718;28;20294;-54
2022/05/18 02:41:54;;;;;;;16.40;11.00;;;18.00;99.90;;;;;;5022679;28;20208;-54
2022/05/18 02:44:21;;;;;;;13.03;10.70;;;18.10;99.90;;;;;;5022531;28;20228;-54
2022/05/18 02:46:48;;;;;;;12.07;10.67;;;18.00;99.90;;;;;;5021851;28;20299;-52
2022/05/18 02:49:15;;;;;;;13.73;11.40;;;18.00;99.90;;;;;;5018999;28;20194;-53
2022/05/18 02:51:42;;;;;;;16.43;12.90;;;18.10;99.90;;;;;;5023118;28;20826;-53
2022/05/18 02:57:01;;;;;;;18.53;11.07;;;18.10;99.90;;;;;;5026705;28;20668;-53
2022/05/18 02:59:28;;;;;;;12.67;10.93;;;18.10;99.90;;;;;;5028749;28;20845;-51
2022/05/18 03:01:54;;;;;;;14.13;11.40;;;18.10;99.90;;;;;;5025669;28;20235;-53
2022/05/18 03:04:21;;;;;;;21.37;12.33;;;18.10;99.90;;;;;;5029447;28;20579;-54
2022/05/18 03:06:49;;;;;;;15.73;11.63;;;18.10;99.90;;;;;;5024151;28;20623;-54
2022/05/18 03:09:17;;;;;;;14.20;11.13;;;18.10;99.90;;;;;;5023178;28;20204;-53
2022/05/18 03:11:46;;;;;;;16.43;12.00;;;18.10;99.90;;;;;;5025223;28;20642;-53
2022/05/18 03:14:13;;;;;;;17.30;12.83;;;18.10;99.90;;;;;;5025720;28;20229;-53
2022/05/18 03:16:43;;;;;;;12.33;11.03;;;18.10;99.90;;;;;;5022714;28;20241;-53
2022/05/18 03:19:14;;;;;;;14.30;11.67;;;18.10;99.90;;;;;;5024286;28;20233;-53
2022/05/18 03:24:28;;;;;;;12.13;10.87;;;18.00;99.90;;;;;;5025698;28;20406;-53
2022/05/18 03:26:55;;;;;;;13.57;11.60;;;18.00;99.90;;;;;;5024082;28;20671;-53
2022/05/18 03:29:22;;;;;;;12.30;11.00;;;18.10;99.90;;;;;;5025541;28;20679;-54
2022/05/18 03:31:49;;;;;;;14.47;10.97;;;18.10;99.90;;;;;;5025793;28;20230;-53
2022/05/18 03:34:16;;;;;;;14.10;10.83;;;18.10;99.90;;;;;;5022887;28;20202;-53
2022/05/18 03:36:43;;;;;;;14.63;11.30;;;18.00;99.90;;;;;;5020770;28;20735;-54
2022/05/18 03:39:10;;;;;;;15.03;11.77;;;18.00;99.90;;;;;;5023056;28;20256;-54
2022/05/18 03:41:37;;;;;;;12.47;11.17;;;18.10;99.90;;;;;;5021982;28;20208;-53
2022/05/18 03:44:05;;;;;;;13.43;11.57;;;18.10;99.90;;;;;;5022999;28;20713;-54
2022/05/18 03:46:33;;;;;;;15.10;11.60;;;18.20;99.90;;;;;;5024052;28;20309;-54
2022/05/18 03:49:00;;;;;;;14.47;11.50;;;18.30;99.90;;;;;;5025634;28;20289;-53
2022/05/18 03:51:27;;;;;;;12.67;10.33;;;18.30;99.90;;;;;;5025199;28;20243;-54
2022/05/18 03:53:54;;;;;;;13.70;11.10;;;18.30;99.90;;;;;;5024829;28;20217;-54
2022/05/18 03:56:21;;;;;;;13.20;10.27;;;18.40;99.90;;;;;;5020854;28;20290;-54
2022/05/18 03:58:48;;;;;;;14.43;10.17;;;18.40;99.90;;;;;;5016270;28;20286;-54
2022/05/18 04:01:14;;;;;;;12.20;9.93;;;18.50;99.90;;;;;;5017569;28;20640;-53
2022/05/18 04:03:43;;;;;;;12.87;9.77;;;18.40;99.90;;;;;;5024076;28;20280;-53
2022/05/18 04:06:11;;;;;;;18.77;10.17;;;18.40;99.90;;;;;;5023647;28;20219;-53
2022/05/18 04:08:38;;;;;;;14.27;9.90;;;18.30;99.90;;;;;;5025460;28;20342;-54
2022/05/18 04:11:06;;;;;;;10.97;8.83;;;18.30;99.90;;;;;;5023636;28;20237;-54
2022/05/18 04:13:33;;;;;;;13.10;9.77;;;18.30;99.90;;;;;;5026598;28;20822;-54
2022/05/18 04:16:00;;;;;;;10.77;9.17;;;18.30;99.90;;;;;;5021128;28;20221;-54
2022/05/18 04:18:27;;;;;;;11.13;8.97;;;18.30;99.90;;;;;;5024646;28;20207;-53
2022/05/18 04:20:55;;;;;;;11.30;8.73;;;18.40;99.90;;;;;;5022839;28;20294;-53
2022/05/18 04:23:25;;;;;;;11.03;8.57;;;18.40;99.90;;;;;;5021995;28;20347;-53
2022/05/18 04:25:52;;;;;;;9.43;8.33;;;18.50;99.90;;;;;;5016395;28;20300;-53
2022/05/18 04:28:19;;;;;;;10.63;7.07;;;18.50;99.90;;;;;;5023760;28;20272;-54
2022/05/18 04:30:47;;;;;;;11.47;7.43;;;18.60;99.90;;;;;;5023532;28;20227;-54
2022/05/18 04:33:20;;;;;;;9.07;7.70;;;18.70;99.90;;;;;;5027498;28;20198;-54
2022/05/18 04:35:49;;;;;;;10.97;7.83;;;18.70;99.90;;;;;;5024339;28;20654;-54
2022/05/18 04:38:17;;;;;;;10.13;7.03;;;18.70;99.90;;;;;;5022341;28;20216;-53
2022/05/18 04:40:47;;;;;;;9.27;7.07;;;18.70;99.90;;;;;;5024323;28;20627;-54
2022/05/18 04:43:18;;;;;;;8.53;7.60;;;18.80;99.90;;;;;;5024175;28;20226;-54
2022/05/18 04:45:45;;;;;;;7.90;6.43;;;18.70;99.90;;;;;;5020007;28;20298;-55
2022/05/18 04:48:17;;;;;;;11.70;7.10;;;18.80;99.90;;;;;;5025105;28;20210;-54
2022/05/18 04:50:45;;;;;;;8.60;6.30;;;19.00;99.90;;;;;;5022856;28;20659;-53
2022/05/18 04:53:12;;;;;;;13.17;7.50;;;19.00;99.90;;;;;;5022062;28;20199;-54
2022/05/18 04:55:39;;;;;;;7.20;6.37;;;19.00;99.90;;;;;;5020674;28;20622;-54
2022/05/18 04:58:06;;;;;;;13.17;6.47;;;19.00;99.90;;;;;;5023856;28;20711;-54
2022/05/18 05:00:33;;;;;;;7.60;6.30;;;19.10;99.90;;;;;;5022236;28;20226;-54
2022/05/18 05:03:00;;;;;;;11.03;5.83;;;19.10;99.90;;;;;;5022334;28;20697;-54
2022/05/18 05:05:28;;;;;;;6.57;5.90;;;19.10;99.90;;;;;;5026968;28;20296;-54
2022/05/18 05:07:55;;;;;;;7.73;5.67;;;19.20;99.90;;;;;;5014320;28;21078;-54
2022/05/18 05:10:23;;;;;;;8.47;6.33;;;19.20;99.90;;;;;;5012180;28;20616;-54
2022/05/18 05:12:50;;;;;;;8.37;6.33;;;19.20;99.90;;;;;;5022332;28;20222;-54
2022/05/18 05:15:17;;;;;;;7.57;5.67;;;19.30;99.90;;;;;;5026974;28;20714;-53
2022/05/18 05:17:45;;;;;;;9.73;5.80;;;19.20;99.90;;;;;;5022675;28;20210;-54
2022/05/18 05:20:13;;;;;;;7.47;5.87;;;19.30;99.90;;;;;;5024090;28;20384;-53
2022/05/18 05:22:40;;;;;;;7.00;5.43;;;19.30;99.90;;;;;;5021664;28;20229;-54
2022/05/18 05:25:07;;;;;;;8.53;6.27;;;19.30;99.90;;;;;;5027992;28;20274;-54
2022/05/18 05:27:34;;;;;;;11.67;6.63;;;19.20;99.90;;;;;;5021773;28;20567;-53
2022/05/18 05:30:02;;;;;;;7.43;6.27;;;19.10;99.90;;;;;;5028561;28;20195;-55
2022/05/18 05:32:29;;;;;;;8.87;6.10;;;19.20;99.90;;;;;;5023244;28;20200;-54
2022/05/18 05:34:56;;;;;;;12.83;6.10;;;19.20;99.90;;;;;;5028619;28;20298;-54
2022/05/18 05:37:23;;;;;;;10.53;6.20;;;19.30;99.90;;;;;;5025603;28;20335;-54
2022/05/18 05:39:49;;;;;;;11.90;6.43;;;19.20;99.90;;;;;;5035946;28;20200;-54
2022/05/18 05:42:16;;;;;;;9.37;6.77;;;19.20;99.90;;;;;;5030425;28;20253;-54
2022/05/18 05:44:43;;;;;;;7.60;6.27;;;19.20;99.90;;;;;;5022351;28;20685;-54
2022/05/18 05:47:11;;;;;;;8.80;7.00;;;19.30;99.90;;;;;;5025120;28;20760;-55
2022/05/18 05:49:39;;;;;;;10.43;6.43;;;19.20;99.90;;;;;;5018063;28;20335;-54
2022/05/18 05:52:07;;;;;;;10.27;6.17;;;19.10;99.90;;;;;;5020061;28;20524;-56
2022/05/18 05:54:35;;;;;;;8.23;6.97;;;19.30;99.90;;;;;;5024934;28;20215;-54
2022/05/18 05:57:04;;;;;;;7.17;6.43;;;19.40;99.90;;;;;;5022202;28;20226;-53
2022/05/18 05:59:33;;;;;;;10.67;6.63;;;19.50;99.90;;;;;;5025145;28;20211;-54
2022/05/18 06:02:07;;;;;;;8.73;6.63;;;19.60;99.90;;;;;;5016533;28;20308;-53
2022/05/18 06:04:36;;;;;;;9.60;8.10;;;19.60;99.90;;;;;;5015947;28;20204;-53
2022/05/18 06:07:03;;;;;;;9.80;6.90;;;19.70;99.90;;;;;;5021437;28;20757;-56
2022/05/18 06:09:30;;;;;;;11.57;7.83;;;19.70;99.90;;;;;;5022857;28;20715;-54
2022/05/18 06:11:57;;;;;;;9.70;7.03;;;19.60;99.90;;;;;;5012912;28;20568;-53
2022/05/18 06:14:23;;;;;;;9.27;7.07;;;19.60;99.90;;;;;;5014155;28;20227;-54
2022/05/18 06:16:50;;;;;;;11.17;7.43;;;19.70;99.90;;;;;;5019974;28;20682;-52
2022/05/18 06:19:18;;;;;;;10.43;7.80;;;19.70;99.90;;;;;;5025114;28;20293;-54
2022/05/18 06:21:47;;;;;;;13.50;8.33;;;19.80;99.90;;;;;;5021659;28;20274;-54
2022/05/18 06:24:15;;;;;;;9.10;7.53;;;19.80;99.90;;;;;;5017205;28;20307;-54
2022/05/18 06:26:43;;;;;;;8.60;7.70;;;19.80;99.90;;;;;;5018814;28;20211;-54
2022/05/18 06:29:10;;;;;;;8.83;7.57;;;19.70;99.90;;;;;;5016739;28;20254;-53
2022/05/18 06:31:37;;;;;;;11.80;8.17;;;19.80;99.90;;;;;;5016654;28;20224;-54
2022/05/18 06:34:06;;;;;;;10.63;7.83;;;19.80;99.90;;;;;;5015529;28;20217;-54
2022/05/18 06:36:34;;;;;;;8.93;7.63;;;19.90;99.90;;;;;;5023288;28;20266;-53
2022/05/18 06:39:02;;;;;;;11.40;8.27;;;20.00;99.90;;;;;;5009488;28;20200;-54
2022/05/18 06:41:33;;;;;;;9.63;6.97;;;20.00;99.90;;;;;;5022450;28;20204;-54
2022/05/18 06:44:02;;;;;;;12.57;7.80;;;19.90;99.90;;;;;;5022591;28;20289;-54
2022/05/18 06:46:33;;;;;;;9.00;7.50;;;19.80;99.90;;;;;;5015245;28;20678;-53
2022/05/18 06:49:01;;;;;;;9.03;7.90;;;19.80;99.90;;;;;;5022282;28;20217;-54
2022/05/18 06:51:32;;;;;;;11.67;8.00;;;20.10;99.90;;;;;;5020449;28;20239;-54
2022/05/18 06:53:59;;;;;;;10.47;8.10;;;20.40;99.90;;;;;;5013040;28;20273;-54
2022/05/18 06:56:28;;;;;;;11.17;8.00;;;20.60;99.90;;;;;;5016897;28;20290;-54
2022/05/18 06:58:55;;;;;;;9.73;7.53;;;20.50;99.90;;;;;;5015248;28;20608;-55
2022/05/18 07:01:24;;;;;;;11.43;7.57;;;20.90;99.90;;;;;;5013226;28;20331;-54
2022/05/18 07:03:51;;;;;;;16.03;9.00;;;21.10;99.90;;;;;;5003621;28;20687;-53
2022/05/18 07:06:28;;;;;;;11.83;7.93;;;21.00;99.90;;;;;;5012820;28;20356;-54
2022/05/18 07:08:55;;;;;;;11.43;7.63;;;21.20;99.90;;;;;;5021908;28;20264;-53
2022/05/18 07:11:23;;;;;;;12.87;8.77;;;21.30;99.90;;;;;;5024783;28;20545;-55
2022/05/18 07:13:54;;;;;;;10.23;7.87;;;21.40;99.90;;;;;;5019870;28;20280;-54
2022/05/18 07:16:22;;;;;;;11.47;8.40;;;21.50;99.90;;;;;;5018462;28;20199;-54
2022/05/18 07:18:50;;;;;;;12.33;8.40;;;21.80;99.90;;;;;;5017530;28;20198;-53
2022/05/18 07:21:17;;;;;;;11.00;9.37;;;21.80;99.90;;;;;;5024103;28;20200;-55
2022/05/18 07:23:44;;;;;;;15.77;9.13;;;22.00;99.90;;;;;;5013838;28;20694;-65
2022/05/18 07:26:11;;;;;;;12.97;9.07;;;22.30;99.90;;;;;;5020558;28;20617;-54
2022/05/18 07:28:39;;;;;;;14.90;9.07;;;21.90;99.90;;;;;;5018753;28;20351;-54
2022/05/18 07:31:07;;;;;;;12.97;9.33;;;21.90;99.90;;;;;;5023292;28;20193;-54
2022/05/18 07:33:39;;;;;;;10.90;8.77;;;22.00;99.90;;;;;;5023288;28;20209;-54
2022/05/18 07:36:07;;;;;;;11.60;8.53;;;22.20;99.90;;;;;;5021411;28;20669;-54
2022/05/18 07:38:35;;;;;;;8.87;7.97;;;22.40;99.90;;;;;;5025383;28;20211;-54
2022/05/18 07:41:05;;;;;;;13.23;8.63;;;22.70;99.90;;;;;;5025824;28;20219;-54
2022/05/18 07:43:32;;;;;;;9.70;7.63;;;22.70;99.90;;;;;;5022393;28;20642;-53
2022/05/18 07:45:59;;;;;;;8.13;7.20;;;22.90;99.90;;;;;;5023856;28;20189;-53
2022/05/18 07:48:26;;;;;;;14.07;7.17;;;22.90;99.90;;;;;;5032988;28;20213;-54
2022/05/18 07:50:53;;;;;;;9.17;7.47;;;23.10;99.90;;;;;;5020201;28;20209;-56
2022/05/18 07:53:21;;;;;;;11.20;6.73;;;22.50;99.90;;;;;;5023297;28;20207;-54
2022/05/18 07:55:48;;;;;;;11.53;8.07;;;22.30;99.90;;;;;;5026430;28;20200;-54
2022/05/18 07:58:17;;;;;;;10.83;8.57;;;22.00;99.90;;;;;;5021841;28;20232;-54
2022/05/18 08:00:45;;;;;;;12.97;9.37;;;21.80;99.90;;;;;;5021449;28;20335;-53
2022/05/18 08:03:13;;;;;;;13.63;9.17;;;21.60;99.90;;;;;;5025595;28;20317;-54
2022/05/18 08:05:41;;;;;;;11.20;9.00;;;21.60;99.90;;;;;;5019947;28;20229;-54
2022/05/18 08:08:20;;;;;;;16.33;10.77;;;21.50;99.90;;;;;;5025545;28;20221;-54
2022/05/18 08:16:18;;;;;;;14.50;9.57;;;22.10;99.90;;;;;;5021996;28;20688;-54
2022/05/18 08:18:46;;;;;;;23.63;11.77;;;22.30;99.90;;;;;;5024556;28;20251;-53
2022/05/18 08:21:14;;;;;;;12.23;9.43;;;22.50;99.90;;;;;;5023335;28;20402;-53
2022/05/18 08:23:41;;;;;;;10.63;8.83;;;22.70;99.90;;;;;;5017210;28;20264;-54
2022/05/18 08:26:08;;;;;;;12.43;7.93;;;22.80;99.90;;;;;;5023375;28;20242;-54
2022/05/18 08:28:35;;;;;;;13.73;7.47;;;22.80;99.90;;;;;;5021797;28;20572;-54
2022/05/18 08:31:02;;;;;;;10.77;7.47;;;23.10;99.90;;;;;;5019720;28;20290;-54
2022/05/18 08:33:33;;;;;;;9.97;5.87;;;23.30;99.90;;;;;;5024291;28;20290;-54
2022/05/18 08:36:03;;;;;;;10.80;6.40;;;23.60;99.90;;;;;;5016873;28;20228;-54
2022/05/18 08:38:30;;;;;;;8.87;6.53;;;23.40;99.90;;;;;;5028703;28;20258;-55
2022/05/18 08:41:08;;;;;;;19.30;9.33;;;23.60;99.90;;;;;;5032790;28;20207;-54
2022/05/18 08:43:39;;;;;;;7.77;5.87;;;23.90;99.90;;;;;;5032455;28;20240;-54
2022/05/18 08:46:18;;;;;;;8.97;4.93;;;23.90;99.90;;;;;;5034828;28;20253;-54
2022/05/18 08:49:12;;;;;;;10.17;4.07;;;24.20;99.90;;;;;;5027823;28;20270;-54
2022/05/18 08:52:00;;;;;;;6.77;3.80;;;24.10;99.90;;;;;;5026573;28;20205;-54
2022/05/18 08:54:59;;;;;;;7.50;3.47;;;24.40;99.90;;;;;;5032184;28;20207;-55
2022/05/18 08:57:33;;;;;;;4.60;3.47;;;24.60;99.90;;;;;;5011451;28;20297;-54
2022/05/18 09:00:27;;;;;;;6.63;4.07;;;24.10;99.90;;;;;;5028887;28;20235;-54
2022/05/18 09:03:18;;;;;;;6.93;3.00;;;23.70;99.90;;;;;;5033603;28;20276;-54
2022/05/18 09:05:58;;;;;;;9.13;3.37;;;23.80;99.90;;;;;;5022031;28;20221;-54
2022/05/18 09:08:38;;;;;;;4.90;3.13;;;23.80;99.90;;;;;;5028882;28;20659;-53
2022/05/18 09:11:09;;;;;;;5.70;3.40;;;23.50;99.90;;;;;;5022723;28;20196;-56
2022/05/18 09:13:38;;;;;;;6.30;3.13;;;23.50;99.90;;;;;;5022534;28;20200;-54
2022/05/18 09:16:10;;;;;;;6.43;2.40;;;23.50;99.90;;;;;;5021683;28;20212;-54
2022/05/18 09:18:44;;;;;;;6.00;2.93;;;24.20;99.90;;;;;;5019526;28;20227;-53
2022/05/18 09:21:10;;;;;;;4.97;3.20;;;24.60;99.90;;;;;;5018031;28;20338;-56
2022/05/18 09:23:53;;;;;;;5.67;3.40;;;24.50;99.90;;;;;;5018893;28;20306;-55
2022/05/18 09:26:51;;;;;;;6.67;3.20;;;24.40;99.90;;;;;;5022812;28;20675;-56
2022/05/18 09:29:35;;;;;;;7.37;4.03;;;24.50;99.90;;;;;;5021559;28;20259;-54
2022/05/18 09:32:11;;;;;;;7.50;3.80;;;24.30;99.90;;;;;;5026954;28;20311;-55
2022/05/18 09:34:56;;;;;;;4.50;3.40;;;24.20;99.90;;;;;;5025457;28;20644;-55
2022/05/18 09:38:19;;;;;;;5.13;3.40;;;24.30;99.90;;;;;;5024372;28;20435;-55
2022/05/18 09:40:48;;;;;;;5.90;3.17;;;24.50;99.90;;;;;;4952026;28;20275;-54
2022/05/18 09:43:29;;;;;;;6.33;3.47;;;24.70;99.90;;;;;;4984880;28;20305;-54
2022/05/18 09:45:57;;;;;;;7.37;3.50;;;24.80;99.90;;;;;;4982036;28;20212;-54
2022/05/18 09:48:36;;;;;;;6.37;2.77;;;24.70;99.90;;;;;;4977682;28;20232;-53
2022/05/18 09:51:04;;;;;;;6.33;3.23;;;24.90;99.90;;;;;;4983819;28;20210;-54
2022/05/18 09:53:31;;;;;;;6.53;3.20;;;24.80;99.90;;;;;;4982825;28;20437;-53
2022/05/18 09:55:58;;;;;;;8.27;3.53;;;24.70;99.90;;;;;;4982773;28;20630;-54
2022/05/18 09:58:37;;;;;;;3.10;2.40;;;24.70;99.90;;;;;;4982775;28;20248;-54
2022/05/18 10:10:05;;;;;;;5.90;2.30;;;25.30;99.90;;;;;;4984480;28;20631;-55
2022/05/18 10:12:48;;;;;;;5.23;2.37;;;25.50;99.90;;;;;;4981442;28;20290;-54
2022/05/18 10:15:24;;;;;;;11.40;2.60;;;25.20;99.90;;;;;;5015291;28;20214;-54
2022/05/18 10:17:54;;;;;;;6.30;2.27;;;24.90;99.90;;;;;;5015611;28;20239;-53
2022/05/18 10:20:36;;;;;;;5.70;2.30;;;25.10;99.90;;;;;;5023030;28;20232;-54
2022/05/18 10:23:41;;;;;;;7.60;3.03;;;25.20;99.90;;;;;;5025970;28;20229;-54
2022/05/18 10:26:20;;;;;;;3.47;1.73;;;25.00;99.90;;;;;;5020880;28;20201;-54
2022/05/18 10:29:00;;;;;;;4.50;2.10;;;25.10;99.90;;;;;;5027682;28;20218;-57
2022/05/18 10:31:43;;;;;;;1.80;1.60;;;25.10;99.90;;;;;;5019888;28;20620;-55
2022/05/18 10:34:15;;;;;;;3.97;1.83;;;25.10;99.90;;;;;;5017638;28;20244;-53
2022/05/18 10:37:09;;;;;;;6.37;2.20;;;25.10;99.90;;;;;;5026451;28;20252;-55
2022/05/18 10:39:47;;;;;;;6.70;1.97;;;25.00;99.90;;;;;;5023690;28;20236;-56
2022/05/18 10:42:42;;;;;;;3.87;2.10;;;25.40;99.90;;;;;;5024382;28;20636;-54
2022/05/18 10:45:27;;;;;;;3.87;1.70;;;25.50;99.90;;;;;;5019087;28;20350;-53
2022/05/18 10:47:58;;;;;;;2.97;1.50;;;25.50;99.90;;;;;;5025018;28;20315;-54
2022/05/18 10:50:32;;;;;;;4.63;1.67;;;25.40;99.90;;;;;;5025128;28;20248;-57
2022/05/18 10:53:17;;;;;;;2.87;1.60;;;25.50;99.90;;;;;;5028438;28;20285;-54
2022/05/18 10:56:05;;;;;;;3.93;2.30;;;25.40;99.90;;;;;;5027702;28;20209;-56
2022/05/18 10:58:51;;;;;;;5.43;2.77;;;25.50;99.90;;;;;;5039867;28;20278;-54
2022/05/18 11:01:32;;;;;;;3.20;1.60;;;26.00;99.90;;;;;;5019849;28;21509;-55
2022/05/18 11:04:15;;;;;;;5.10;2.80;;;26.10;99.90;;;;;;5017559;28;20203;-54
2022/05/18 11:06:42;;;;;;;4.40;1.53;;;26.50;99.90;;;;;;5025926;28;20228;-55
2022/05/18 11:09:19;;;;;;;3.13;2.00;;;26.50;99.90;;;;;;5027389;28;20254;-54
2022/05/18 11:12:15;;;;;;;2.43;1.60;;;26.30;99.90;;;;;;5031903;28;20238;-54
2022/05/18 11:14:50;;;;;;;1.93;1.40;;;26.50;99.90;;;;;;5021451;28;20674;-54
2022/05/18 11:17:52;;;;;;;3.17;1.33;;;27.00;99.90;;;;;;5017448;28;20201;-54
2022/05/18 11:20:31;;;;;;;3.60;1.70;;;26.90;99.90;;;;;;5018910;28;20647;-55
2022/05/18 11:23:30;;;;;;;3.73;2.10;;;26.50;99.90;;;;;;5025135;28;20683;-54
2022/05/18 11:26:29;;;;;;;17.63;3.60;;;26.90;99.90;;;;;;5028131;28;20201;-54
2022/05/18 11:29:20;;;;;;;9.00;1.77;;;27.20;99.90;;;;;;5027895;28;20699;-54
2022/05/18 11:32:21;;;;;;;15.03;2.77;;;27.30;99.90;;;;;;5025364;28;20188;-54
2022/05/18 11:34:59;;;;;;;5.97;1.77;;;27.80;99.90;;;;;;5019892;28;20195;-55
2022/05/18 11:37:50;;;;;;;3.97;1.90;;;28.20;99.90;;;;;;5024271;28;20295;-55
2022/05/18 11:40:35;;;;;;;22.33;3.30;;;27.80;99.90;;;;;;5020915;28;20714;-55
2022/05/18 11:43:29;;;;;;;9.50;3.13;;;27.80;99.90;;;;;;5023966;28;20278;-55
2022/05/18 11:46:27;;;;;;;4.35;2.42;;;28.40;99.90;;;;;;5018034;28;20658;-55
2022/05/18 11:49:20;;;;;;;4.00;2.42;;;28.30;99.90;;;;;;5030178;28;20443;-55
2022/05/18 11:52:15;;;;;;;4.93;2.40;;;28.40;99.90;;;;;;5026087;28;20678;-55
2022/05/18 11:54:51;;;;;;;4.30;2.03;;;27.50;99.90;;;;;;5024412;28;20232;-54
2022/05/18 11:57:46;;;;;;;5.47;2.20;;;26.70;99.90;;;;;;5026826;28;20645;-56
2022/05/18 12:00:51;;;;;;;4.90;1.77;;;26.50;99.90;;;;;;5021151;28;20643;-55
2022/05/18 12:03:20;;;;;;;3.80;2.30;;;26.80;99.90;;;;;;5026442;28;20327;-55
2022/05/18 12:06:01;;;;;;;4.78;2.25;;;27.00;99.90;;;;;;5022104;28;20279;-55
2022/05/18 12:08:56;;;;;;;3.63;1.70;;;26.90;99.90;;;;;;5023036;28;20236;-55
2022/05/18 12:11:47;;;;;;;4.53;2.33;;;26.60;99.90;;;;;;5024899;28;20610;-54
2022/05/18 12:14:38;;;;;;;3.05;2.10;;;26.30;99.90;;;;;;5022419;28;20197;-55
2022/05/18 12:17:22;;;;;;;3.87;2.60;;;26.10;99.90;;;;;;5021605;28;20224;-56
2022/05/18 12:20:21;;;;;;;6.20;1.98;;;26.30;99.90;;;;;;5020259;28;20266;-55
2022/05/18 12:22:58;;;;;;;4.53;2.47;;;26.20;99.90;;;;;;5015196;28;20229;-55
2022/05/18 12:25:27;;;;;;;5.25;2.30;;;26.60;99.90;;;;;;5018753;28;20717;-55
2022/05/18 12:28:02;;;;;;;3.60;2.10;;;27.00;99.90;;;;;;5028274;28;20244;-55
2022/05/18 12:30:33;;;;;;;4.03;2.83;;;27.00;99.90;;;;;;5018559;28;20205;-55
2022/05/18 12:33:03;;;;;;;6.97;2.17;;;27.20;99.90;;;;;;5019669;28;20193;-54
2022/05/18 12:36:06;;;;;;;2.57;2.00;;;27.40;99.90;;;;;;5028518;28;20258;-55
2022/05/18 12:38:51;;;;;;;6.20;2.27;;;27.70;99.90;;;;;;5028128;28;20210;-55
2022/05/18 12:41:21;;;;;;;5.88;2.40;;;27.70;99.90;;;;;;5024098;28;20672;-54
2022/05/18 12:44:15;;;;;;;5.07;2.50;;;27.50;99.90;;;;;;5026444;28;20283;-54
2022/05/18 12:46:51;;;;;;;4.10;2.10;;;27.70;99.90;;;;;;5028958;28;20300;-54
2022/05/18 12:49:30;;;;;;;3.00;1.88;;;27.90;99.90;;;;;;5026164;28;20224;-57
2022/05/18 12:52:04;;;;;;;29.23;4.70;;;27.80;99.90;;;;;;5025766;28;20243;-55
2022/05/18 12:54:47;;;;;;;7.90;2.10;;;27.90;99.90;;;;;;5026231;28;20344;-54
2022/05/18 12:57:39;;;;;;;3.22;2.00;;;28.30;99.90;;;;;;5024523;28;20192;-54
2022/05/18 13:00:45;;;;;;;3.22;2.05;;;28.20;99.90;;;;;;5018129;28;20205;-55
2022/05/18 13:03:11;;;;;;;3.58;2.38;;;28.00;99.90;;;;;;5028708;28;20267;-55
2022/05/18 13:05:47;;;;;;;5.78;2.20;;;27.40;99.90;;;;;;5021502;28;20547;-55
2022/05/18 13:08:19;;;;;;;3.55;2.22;;;28.10;99.90;;;;;;5024840;28;20258;-56
2022/05/18 13:11:10;;;;;;;4.22;2.53;;;28.20;99.90;;;;;;5019528;28;20346;-56
2022/05/18 13:13:58;;;;;;;5.50;2.30;;;28.10;99.90;;;;;;5022823;28;20224;-55
2022/05/18 13:16:37;;;;;;;6.25;2.53;;;27.70;99.90;;;;;;5027231;28;20232;-55
2022/05/18 13:19:13;;;;;;;6.00;2.60;;;27.70;99.90;;;;;;5015684;28;20255;-54
2022/05/18 13:21:53;;;;;;;2.95;2.30;;;27.50;99.90;;;;;;5020718;28;20625;-54
2022/05/18 13:24:25;;;;;;;4.35;2.08;;;28.00;99.90;;;;;;5017994;28;20216;-55
2022/05/18 13:26:52;;;;;;;3.45;2.55;;;28.30;99.90;;;;;;5020353;28;20203;-54
2022/05/18 13:29:29;;;;;;;4.72;2.85;;;28.20;99.90;;;;;;5017212;28;20270;-55
2022/05/18 13:32:03;;;;;;;5.05;2.70;;;28.00;99.90;;;;;;5023686;28;20249;-54